Time;durP1;ratioP1;P1;durP2;ratioP2;P2;SDS_P1;SDS_P2;PMS_P1;PMS_P2;Temp;Humidity;BMP_temperature;BMP_pressure;BME280_temperature;BME280_humidity;BME280_pressure;Samples;Min_cycle;Max_cycle;Signal;HPM_P1;HPM_P2
2024/04/24 00:00:39;;;;;;;29.30;16.95;;;6.70;65.10;;;1.48;100.00;95160.13;5354142;26;20362;-49
2024/04/24 00:03:06;;;;;;;28.20;16.27;;;6.70;65.10;;;1.50;100.00;95152.03;5329308;26;20014;-50
2024/04/24 00:05:32;;;;;;;33.90;18.70;;;6.70;65.10;;;1.49;100.00;95147.81;5319894;26;20035;-50
2024/04/24 00:07:58;;;;;;;29.98;17.33;;;6.70;65.00;;;1.51;100.00;95148.41;5334885;26;20020;-47
2024/04/24 00:10:24;;;;;;;28.73;17.38;;;6.70;65.10;;;1.48;100.00;95147.00;5334656;26;20015;-47
2024/04/24 00:12:50;;;;;;;34.03;17.73;;;6.70;65.10;;;1.49;100.00;95150.41;5333829;26;20008;-52
2024/04/24 00:15:16;;;;;;;30.42;18.63;;;6.70;65.10;;;1.49;100.00;95153.84;5303144;26;20005;-50
2024/04/24 00:17:42;;;;;;;31.48;18.67;;;6.70;65.20;;;1.48;100.00;95146.22;5318591;26;20345;-46
2024/04/24 00:20:09;;;;;;;32.90;17.65;;;6.70;65.20;;;1.47;100.00;95144.56;5335568;26;20015;-47
2024/04/24 00:22:34;;;;;;;33.40;19.25;;;6.70;65.30;;;1.45;100.00;95144.00;5319293;26;20012;-47
2024/04/24 00:25:00;;;;;;;36.75;18.05;;;6.70;65.30;;;1.44;100.00;95145.00;5319815;26;20483;-46
2024/04/24 00:27:29;;;;;;;32.75;17.98;;;6.70;65.20;;;1.43;100.00;95136.34;5308008;26;20515;-47
2024/04/24 00:29:55;;;;;;;33.15;19.40;;;6.70;65.30;;;1.42;100.00;95137.38;5306929;26;20020;-46
2024/04/24 00:32:20;;;;;;;30.85;17.98;;;6.70;65.30;;;1.43;100.00;95132.91;5306318;26;20002;-53
2024/04/24 00:34:46;;;;;;;32.97;18.70;;;6.70;65.30;;;1.43;100.00;95127.66;5319168;26;20070;-48
2024/04/24 00:37:13;;;;;;;35.65;18.15;;;6.70;65.30;;;1.41;100.00;95127.91;5338588;26;20007;-49
2024/04/24 00:39:39;;;;;;;33.97;19.60;;;6.70;65.30;;;1.38;100.00;95129.13;5321876;26;20005;-48
2024/04/24 00:42:05;;;;;;;36.28;19.25;;;6.70;65.30;;;1.40;100.00;95126.28;5324645;26;20492;-50
2024/04/24 00:44:31;;;;;;;36.92;19.80;;;6.70;65.30;;;1.39;100.00;95122.06;5324643;26;20045;-48
2024/04/24 00:47:00;;;;;;;36.42;19.60;;;6.70;65.30;;;1.37;100.00;95126.72;5331560;26;20019;-49
2024/04/24 00:49:26;;;;;;;38.55;20.65;;;6.60;65.30;;;1.37;100.00;95124.88;5308390;26;19997;-51
2024/04/24 00:51:54;;;;;;;36.72;19.63;;;6.70;65.40;;;1.38;100.00;95125.72;5337735;26;20001;-48
2024/04/24 00:54:19;;;;;;;39.05;21.27;;;6.60;65.30;;;1.39;100.00;95116.81;5332800;26;20016;-47
2024/04/24 00:56:46;;;;;;;40.17;20.08;;;6.60;65.40;;;1.38;100.00;95120.47;5324907;26;20493;-46
2024/04/24 00:59:12;;;;;;;38.33;21.02;;;6.60;65.40;;;1.37;100.00;95117.00;5316164;26;20017;-47
2024/04/24 01:01:38;;;;;;;38.72;21.15;;;6.60;65.50;;;1.36;100.00;95119.88;5304290;26;20004;-50
2024/04/24 01:04:04;;;;;;;34.13;18.88;;;6.60;65.50;;;1.33;100.00;95112.44;5319910;26;20086;-51
2024/04/24 01:06:30;;;;;;;34.28;19.48;;;6.60;65.50;;;1.30;100.00;95113.66;5307131;26;20017;-47
2024/04/24 01:08:56;;;;;;;38.47;20.45;;;6.50;65.50;;;1.29;100.00;95112.06;5328289;26;20075;-47
2024/04/24 01:11:21;;;;;;;38.95;20.70;;;6.50;65.50;;;1.27;100.00;95114.09;5336875;26;20004;-50
2024/04/24 01:13:48;;;;;;;40.30;20.30;;;6.50;65.50;;;1.28;100.00;95112.28;5318423;26;20009;-52
2024/04/24 01:16:26;;;;;;;39.13;20.88;;;6.50;65.60;;;1.27;100.00;95110.69;5315137;26;20363;-48
2024/04/24 01:19:48;;;;;;;36.50;20.23;;;6.50;65.80;;;1.22;100.00;95106.06;5333811;26;20000;-47
2024/04/24 01:22:50;;;;;;;34.75;18.08;;;6.50;65.70;;;1.20;100.00;95102.06;5329400;26;20001;-51
2024/04/24 01:25:59;;;;;;;36.00;19.73;;;6.40;65.70;;;1.15;100.00;95093.00;5305400;26;20031;-49
2024/04/24 01:28:26;;;;;;;34.30;18.85;;;6.30;65.60;;;1.12;100.00;95098.69;5319495;26;20243;-49
2024/04/24 01:30:52;;;;;;;31.52;18.15;;;6.20;65.50;;;1.06;100.00;95088.28;5306217;26;20480;-49
2024/04/24 01:33:18;;;;;;;33.10;19.35;;;6.20;65.50;;;0.98;100.00;95084.13;5330357;26;20483;-49
2024/04/24 01:35:44;;;;;;;48.33;18.80;;;6.20;65.50;;;0.93;100.00;95089.19;5335823;26;20019;-49
2024/04/24 01:38:10;;;;;;;31.52;17.15;;;6.10;65.40;;;0.83;100.00;95086.28;5333832;26;20013;-46
2024/04/24 01:40:36;;;;;;;36.85;18.88;;;6.00;65.40;;;0.78;100.00;95091.34;5315029;26;20074;-48
2024/04/24 01:43:01;;;;;;;46.35;19.63;;;5.90;65.30;;;0.72;100.00;95079.91;5331235;26;20013;-47
2024/04/24 01:45:27;;;;;;;54.38;20.30;;;5.90;65.40;;;0.65;100.00;95072.09;5318332;26;20000;-47
2024/04/24 01:47:53;;;;;;;37.97;19.08;;;5.80;65.30;;;0.57;100.00;95082.06;5318085;26;20005;-47
2024/04/24 01:50:19;;;;;;;37.25;19.10;;;5.70;65.40;;;0.50;100.00;95086.53;5327131;26;20487;-47
2024/04/24 01:52:44;;;;;;;33.53;18.73;;;5.60;65.30;;;0.41;100.00;95086.03;5334641;26;20016;-48
2024/04/24 01:55:10;;;;;;;37.08;18.23;;;5.60;65.40;;;0.31;100.00;95078.59;5335902;26;20012;-46
2024/04/24 01:57:37;;;;;;;35.80;18.08;;;5.50;65.30;;;0.20;100.00;95079.31;5311035;26;20005;-47
2024/04/24 02:00:03;;;;;;;35.08;19.42;;;5.40;65.20;;;0.11;100.00;95076.13;5317287;26;20546;-46
2024/04/24 02:02:29;;;;;;;31.23;18.23;;;5.30;65.20;;;0.03;100.00;95075.56;5303174;26;20478;-48
2024/04/24 02:04:55;;;;;;;38.38;18.60;;;5.20;65.10;;;-0.04;100.00;95075.63;5306705;26;20002;-50
2024/04/24 02:07:20;;;;;;;34.90;18.33;;;5.20;65.20;;;-0.14;100.00;95070.03;5302752;26;20028;-48
2024/04/24 02:09:46;;;;;;;33.60;18.63;;;5.10;65.30;;;-0.19;100.00;95068.03;5317280;26;20006;-49
2024/04/24 02:12:12;;;;;;;51.50;18.13;;;5.00;65.30;;;-0.25;100.00;95074.16;5313377;26;20032;-48
2024/04/24 02:14:38;;;;;;;42.35;18.63;;;5.00;65.30;;;-0.31;100.00;95067.13;5337379;26;20351;-47
2024/04/24 02:17:03;;;;;;;80.25;20.48;;;4.90;65.30;;;-0.36;100.00;95075.59;5325761;26;20040;-46
2024/04/24 02:19:29;;;;;;;36.35;17.73;;;4.80;65.30;;;-0.39;100.00;95080.44;5337165;26;20001;-47
2024/04/24 02:21:55;;;;;;;88.97;20.55;;;4.80;65.50;;;-0.44;100.00;95077.63;5312292;26;20005;-47
2024/04/24 02:27:07;;;;;;;77.45;19.05;;;4.60;65.50;;;-0.51;100.00;95075.03;5251908;26;20338;-47
2024/04/24 02:29:33;;;;;;;35.33;17.92;;;4.60;65.50;;;-0.55;100.00;95068.63;5318412;26;20493;-46
2024/04/24 02:31:58;;;;;;;43.55;19.13;;;4.50;65.50;;;-0.62;100.00;95062.63;5333724;26;20405;-46
2024/04/24 02:34:24;;;;;;;163.60;22.33;;;4.50;65.60;;;-0.66;100.00;95070.06;5317750;26;20009;-47
2024/04/24 02:36:50;;;;;;;40.53;18.67;;;4.40;65.60;;;-0.74;100.00;95063.25;5336473;26;20008;-49
2024/04/24 02:39:16;;;;;;;37.45;18.45;;;4.40;65.70;;;-0.81;100.00;95065.09;5328243;26;20016;-48
2024/04/24 02:41:41;;;;;;;38.28;18.48;;;4.30;65.80;;;-0.80;100.00;95064.09;5312579;26;20044;-48
2024/04/24 02:44:07;;;;;;;45.28;20.30;;;4.30;65.80;;;-0.78;100.00;95061.28;5311921;26;20005;-46
2024/04/24 02:46:33;;;;;;;40.22;18.48;;;4.30;66.00;;;-0.77;100.00;95063.66;5332372;26;20004;-46
2024/04/24 02:48:59;;;;;;;46.20;19.58;;;4.30;66.10;;;-0.79;100.00;95062.25;5307990;26;20081;-46
2024/04/24 02:51:24;;;;;;;44.95;20.80;;;4.30;67.00;;;-0.76;100.00;95067.88;5332201;26;20009;-47
2024/04/24 02:53:50;;;;;;;46.42;20.73;;;4.30;66.40;;;-0.72;100.00;95063.06;5319583;26;20454;-47
2024/04/24 02:56:16;;;;;;;48.58;20.60;;;4.30;66.50;;;-0.72;100.00;95063.06;5299775;27;20005;-51
2024/04/24 02:58:42;;;;;;;52.75;20.77;;;4.40;66.60;;;-0.68;100.00;95063.47;5327239;26;20009;-53
2024/04/24 03:01:13;;;;;;;45.72;21.10;;;4.40;66.70;;;-0.67;100.00;95057.19;5313575;26;20001;-51
2024/04/24 03:03:39;;;;;;;50.42;22.17;;;4.50;66.80;;;-0.61;100.00;95056.38;5309450;26;20404;-50
2024/04/24 03:06:05;;;;;;;50.90;20.90;;;4.50;66.80;;;-0.55;100.00;95060.78;5326531;26;20001;-52
2024/04/24 03:08:31;;;;;;;50.60;21.48;;;4.50;66.80;;;-0.51;100.00;95044.44;5314585;26;20005;-48
2024/04/24 03:10:57;;;;;;;44.92;20.70;;;4.60;66.80;;;-0.45;100.00;95047.25;5327247;26;20008;-48
2024/04/24 03:13:22;;;;;;;46.03;20.38;;;4.60;66.80;;;-0.46;100.00;95051.69;5327728;26;20000;-52
2024/04/24 03:15:48;;;;;;;64.00;20.30;;;4.70;66.90;;;-0.39;100.00;95044.59;5290475;26;20040;-50
2024/04/24 03:18:14;;;;;;;53.08;21.80;;;4.70;66.90;;;-0.34;100.00;95044.00;5299966;27;20360;-54
2024/04/24 03:20:40;;;;;;;50.53;21.80;;;4.80;67.00;;;-0.31;100.00;95041.75;5333109;26;20004;-51
2024/04/24 03:23:06;;;;;;;50.22;22.33;;;4.80;66.90;;;-0.29;100.00;95037.09;5323416;26;20013;-49
2024/04/24 03:25:32;;;;;;;48.38;21.17;;;4.90;66.90;;;-0.25;100.00;95037.50;5332057;26;20312;-47
2024/04/24 03:27:58;;;;;;;48.55;20.83;;;4.90;66.90;;;-0.21;100.00;95040.50;5321640;26;20023;-48
2024/04/24 03:30:23;;;;;;;45.88;19.73;;;5.00;67.00;;;-0.15;100.00;95047.50;5334983;26;20004;-47
2024/04/24 03:32:49;;;;;;;54.17;22.25;;;5.00;67.00;;;-0.13;100.00;95043.63;5321355;26;20000;-46
2024/04/24 03:35:15;;;;;;;56.42;22.80;;;5.10;67.00;;;-0.08;100.00;95040.41;5318945;26;20109;-46
2024/04/24 03:37:41;;;;;;;62.15;24.50;;;5.10;67.00;;;-0.05;100.00;95040.78;5306853;26;20083;-51
2024/04/24 03:40:07;;;;;;;48.65;21.80;;;5.10;67.00;;;-0.01;100.00;95038.53;5309772;26;20441;-51
2024/04/24 03:42:33;;;;;;;52.42;22.70;;;5.20;67.00;;;0.02;100.00;95040.72;5306537;26;20009;-52
2024/04/24 03:44:59;;;;;;;58.10;23.83;;;5.20;67.00;;;0.06;100.00;95048.97;5335655;26;20353;-52
2024/04/24 03:47:25;;;;;;;59.90;24.00;;;5.30;67.00;;;0.10;100.00;95034.47;5325162;26;20016;-47
2024/04/24 03:49:52;;;;;;;56.10;23.83;;;5.30;67.00;;;0.14;100.00;95038.25;5302628;26;20046;-47
2024/04/24 03:52:20;;;;;;;50.30;22.48;;;5.30;67.00;;;0.18;100.00;95042.03;5302427;26;20480;-50
2024/04/24 03:54:46;;;;;;;45.38;21.95;;;5.30;67.00;;;0.20;100.00;95038.19;5332038;26;20490;-49
2024/04/24 03:57:12;;;;;;;69.78;24.33;;;5.40;67.00;;;0.20;100.00;95038.19;5314628;26;20017;-50
2024/04/24 03:59:38;;;;;;;211.10;29.33;;;5.40;67.00;;;0.20;100.00;95038.19;5307133;26;20491;-48
2024/04/24 04:02:04;;;;;;;60.58;24.85;;;5.50;67.00;;;0.26;100.00;95033.13;5302833;26;20051;-49
2024/04/24 04:04:30;;;;;;;138.13;28.67;;;5.50;67.00;;;0.30;100.00;95035.09;5305176;26;20082;-49
2024/04/24 04:06:55;;;;;;;65.18;24.55;;;5.60;67.10;;;0.34;100.00;95025.78;5305060;26;20001;-48
2024/04/24 04:09:21;;;;;;;61.88;24.90;;;5.60;67.10;;;0.40;100.00;95034.63;5309298;26;20078;-49
2024/04/24 04:11:47;;;;;;;49.22;22.60;;;5.60;67.10;;;0.43;100.00;95028.94;5330107;26;20005;-47
2024/04/24 04:14:13;;;;;;;57.67;24.42;;;5.70;67.10;;;0.45;100.00;95025.09;5321531;26;20016;-48
2024/04/24 04:16:39;;;;;;;55.45;24.67;;;5.70;67.10;;;0.48;100.00;95031.72;5314323;26;19996;-50
2024/04/24 04:19:04;;;;;;;60.05;26.80;;;5.70;67.00;;;0.51;100.00;95039.16;5330534;26;20000;-47
2024/04/24 04:21:30;;;;;;;67.65;26.63;;;5.70;67.80;;;0.55;100.00;95032.47;5343893;26;20016;-48
2024/04/24 04:23:56;;;;;;;68.32;26.98;;;5.80;67.20;;;0.58;100.00;95036.47;5340211;26;20008;-50
2024/04/24 04:26:22;;;;;;;208.98;32.22;;;5.80;67.20;;;0.58;100.00;95032.03;5343622;26;20429;-47
2024/04/24 04:28:47;;;;;;;59.58;25.35;;;5.80;67.20;;;0.61;100.00;95029.00;5316025;26;20012;-51
2024/04/24 04:31:13;;;;;;;190.63;30.52;;;5.80;67.20;;;0.61;100.00;95020.31;5312567;26;20430;-49
2024/04/24 04:33:39;;;;;;;68.20;25.80;;;5.80;67.10;;;0.63;100.00;95026.16;5307599;26;20000;-48
2024/04/24 04:36:06;;;;;;;64.53;25.95;;;5.80;67.10;;;0.65;100.00;95026.72;5333712;26;20012;-46
2024/04/24 04:38:32;;;;;;;67.40;25.27;;;5.90;67.20;;;0.65;100.00;95019.66;5342644;26;20004;-47
2024/04/24 04:40:58;;;;;;;55.05;24.88;;;5.90;67.20;;;0.67;100.00;95024.72;5312295;26;20004;-47
2024/04/24 04:43:24;;;;;;;62.33;24.83;;;5.90;67.10;;;0.68;100.00;95021.84;5319828;26;19997;-49
2024/04/24 04:45:49;;;;;;;95.60;24.30;;;5.90;67.10;;;0.69;100.00;95023.47;5312817;26;20372;-47
2024/04/24 04:48:18;;;;;;;62.63;23.80;;;6.00;67.90;;;0.70;100.00;95013.78;5314268;26;20068;-47
2024/04/24 04:50:44;;;;;;;71.82;25.60;;;6.00;67.00;;;0.71;100.00;95019.84;5334088;26;20081;-47
2024/04/24 04:53:10;;;;;;;55.40;24.08;;;6.00;67.00;;;0.73;100.00;95015.97;5322184;26;20421;-47
2024/04/24 04:55:36;;;;;;;74.57;26.17;;;6.10;67.00;;;0.74;100.00;95014.16;5342893;26;20016;-47
2024/04/24 04:58:02;;;;;;;63.15;24.98;;;6.10;67.00;;;0.77;100.00;95016.34;5342650;26;20019;-47
2024/04/24 05:00:28;;;;;;;56.55;24.08;;;6.20;67.00;;;0.79;100.00;95016.94;5315393;26;20023;-49
2024/04/24 05:02:55;;;;;;;62.88;24.90;;;6.20;66.90;;;0.82;100.00;95017.31;5308508;26;20005;-49
2024/04/24 05:05:22;;;;;;;56.00;23.25;;;6.20;66.90;;;0.84;100.00;95023.13;5321699;26;20016;-48
2024/04/24 05:07:47;;;;;;;61.65;24.67;;;6.30;66.90;;;0.88;100.00;95023.50;5341910;26;20086;-47
2024/04/24 05:10:13;;;;;;;86.55;24.67;;;6.30;66.90;;;0.88;100.00;95015.63;5342617;26;20479;-52
2024/04/24 05:12:39;;;;;;;71.28;27.23;;;6.40;66.90;;;0.91;100.00;95017.81;5310350;26;20001;-49
2024/04/24 05:15:05;;;;;;;69.00;24.55;;;6.40;66.80;;;0.96;100.00;95009.28;5308635;26;20015;-46
2024/04/24 05:17:31;;;;;;;60.50;24.08;;;6.40;66.80;;;0.99;100.00;95009.66;5334884;26;20005;-47
2024/04/24 05:19:58;;;;;;;84.10;27.77;;;6.50;66.90;;;1.03;100.00;95010.81;5338262;26;20413;-50
2024/04/24 05:22:25;;;;;;;66.60;26.20;;;6.50;66.80;;;1.10;100.00;95008.13;5337925;26;20004;-50
2024/04/24 05:24:51;;;;;;;74.10;24.33;;;6.50;66.80;;;1.12;100.00;95014.75;5338338;26;20008;-47
2024/04/24 05:30:01;;;;;;;67.07;26.08;;;6.70;66.80;;;1.21;100.00;95007.38;5320736;26;20060;-47
2024/04/24 05:32:28;;;;;;;69.38;24.80;;;6.70;66.80;;;1.24;100.00;95011.41;5330317;26;20016;-47
2024/04/24 05:34:55;;;;;;;62.25;26.00;;;6.80;66.90;;;1.28;100.00;95010.72;5333908;26;20001;-50
2024/04/24 05:37:20;;;;;;;67.68;25.30;;;6.80;66.90;;;1.30;100.00;95008.69;5328557;26;20040;-49
2024/04/24 05:39:46;;;;;;;66.20;25.73;;;6.90;66.80;;;1.33;100.00;95013.50;5324049;26;20351;-49
2024/04/24 05:42:12;;;;;;;58.30;24.17;;;6.90;66.70;;;1.39;100.00;95007.38;5320579;26;20013;-47
2024/04/24 05:44:38;;;;;;;65.88;24.63;;;7.00;66.70;;;1.45;100.00;95007.53;5314403;26;20017;-47
2024/04/24 05:47:04;;;;;;;58.38;23.90;;;7.10;66.60;;;1.49;100.00;95001.59;5324992;26;20048;-47
2024/04/24 05:49:30;;;;;;;54.53;23.80;;;7.20;66.60;;;1.56;100.00;95009.38;5316508;26;20004;-47
2024/04/24 05:51:56;;;;;;;60.60;24.35;;;7.30;66.50;;;1.58;100.00;95007.34;5325439;26;20496;-54
2024/04/24 05:54:22;;;;;;;62.92;24.42;;;7.40;66.50;;;1.61;100.00;95005.06;5311052;26;20450;-47
2024/04/24 05:56:47;;;;;;;59.90;23.77;;;7.50;66.40;;;1.64;100.00;95000.41;5294980;26;20006;-55
2024/04/24 05:59:13;;;;;;;61.42;24.67;;;7.50;66.30;;;1.76;100.00;95006.50;5327543;26;20392;-52
2024/04/24 06:01:39;;;;;;;58.67;24.73;;;7.60;66.30;;;1.84;100.00;95000.94;5304082;26;20005;-53
2024/04/24 06:04:05;;;;;;;58.20;22.27;;;7.70;66.20;;;1.92;100.00;94998.00;5303997;26;20039;-56
2024/04/24 06:06:31;;;;;;;60.60;25.42;;;7.80;66.20;;;2.04;100.00;95000.66;5303588;26;20614;-55
2024/04/24 06:08:57;;;;;;;54.47;24.52;;;7.90;66.20;;;2.13;100.00;95009.81;5305414;26;20432;-57
2024/04/24 06:11:22;;;;;;;51.95;23.60;;;8.00;66.10;;;2.19;100.00;95008.09;5337291;26;20015;-57
2024/04/24 06:13:49;;;;;;;60.55;24.88;;;8.10;66.10;;;2.25;100.00;95008.00;5338320;26;20000;-56
2024/04/24 06:16:14;;;;;;;49.00;22.98;;;8.20;66.00;;;2.32;100.00;95010.53;5338176;26;20032;-54
2024/04/24 06:18:40;;;;;;;46.63;22.33;;;8.30;66.00;;;2.35;100.00;95007.47;5336657;26;20451;-54
2024/04/24 06:21:06;;;;;;;43.72;21.83;;;8.40;65.90;;;2.41;100.00;95003.09;5338083;26;20022;-56
2024/04/24 06:23:32;;;;;;;43.42;22.00;;;8.50;65.80;;;2.45;100.00;95012.16;5337063;26;20011;-52
2024/04/24 06:25:57;;;;;;;42.78;22.17;;;8.60;65.70;;;2.59;100.00;95010.09;5338225;26;20352;-53
2024/04/24 06:28:24;;;;;;;41.53;21.70;;;8.70;65.70;;;2.68;100.00;95008.72;5315555;26;20350;-50
2024/04/24 06:30:49;;;;;;;45.47;22.10;;;8.80;65.70;;;2.74;100.00;95013.06;5305558;26;20015;-56
2024/04/24 06:33:15;;;;;;;43.13;22.20;;;8.90;65.70;;;2.83;100.00;95014.31;5303451;26;19997;-51
2024/04/24 06:35:41;;;;;;;42.70;21.92;;;9.00;65.60;;;2.93;100.00;95005.84;5322279;26;20001;-52
2024/04/24 06:38:08;;;;;;;39.30;22.33;;;9.10;65.60;;;2.98;100.00;95012.03;5338184;26;20016;-52
2024/04/24 06:40:34;;;;;;;39.47;21.50;;;9.20;65.50;;;3.04;100.00;95014.75;5311738;26;20005;-53
2024/04/24 06:43:01;;;;;;;35.22;21.02;;;9.30;65.40;;;3.10;100.00;95013.81;5309732;26;20024;-54
2024/04/24 06:45:27;;;;;;;36.80;21.42;;;9.30;65.20;;;3.25;100.00;95007.03;5335726;26;20020;-54
2024/04/24 06:47:53;;;;;;;32.22;20.52;;;9.40;65.20;;;3.35;100.00;95003.81;5309461;26;20020;-55
2024/04/24 06:50:19;;;;;;;34.97;20.23;;;9.60;65.30;;;3.44;100.00;95006.88;5303511;26;19997;-54
2024/04/24 06:52:44;;;;;;;29.38;19.65;;;9.70;65.20;;;3.50;100.00;94995.44;5304627;26;20013;-55
2024/04/24 06:55:10;;;;;;;31.10;19.95;;;9.90;65.10;;;3.49;100.00;94999.09;5327139;26;20359;-52
2024/04/24 06:57:36;;;;;;;32.47;21.42;;;10.00;64.80;;;3.59;100.00;94999.28;5337664;26;20045;-55
2024/04/24 07:00:03;;;;;;;30.05;20.42;;;10.00;64.60;;;3.83;100.00;95004.47;5316534;26;20041;-55
2024/04/24 07:02:29;;;;;;;29.23;19.35;;;10.20;64.70;;;3.96;100.00;94998.13;5273154;26;20019;-55
2024/04/24 07:04:54;;;;;;;28.45;18.02;;;10.30;64.60;;;4.04;100.00;94997.72;5309750;26;20000;-56
2024/04/24 07:07:20;;;;;;;22.35;16.63;;;10.50;64.40;;;4.13;100.00;94998.94;5337320;26;20009;-56
2024/04/24 07:09:46;;;;;;;18.75;14.90;;;10.60;64.10;;;4.15;100.00;94995.03;5337296;26;20005;-51
2024/04/24 07:12:12;;;;;;;19.52;14.57;;;10.70;63.90;;;4.23;100.00;94996.47;5336349;26;20479;-50
2024/04/24 07:14:37;;;;;;;19.08;13.40;;;10.80;63.30;;;4.45;100.00;94996.56;5337480;26;20024;-56
2024/04/24 07:17:03;;;;;;;19.02;13.63;;;10.90;63.00;;;4.54;100.00;94989.03;5335574;26;20004;-55
2024/04/24 07:19:29;;;;;;;15.30;13.02;;;11.00;62.70;;;4.70;100.00;94992.69;5337592;26;20086;-54
2024/04/24 07:21:55;;;;;;;15.52;11.68;;;11.20;62.40;;;4.95;100.00;94992.25;5337115;26;20005;-57
2024/04/24 07:24:20;;;;;;;16.85;12.20;;;11.50;62.00;;;5.17;99.63;94994.91;5324136;26;20483;-54
2024/04/24 07:26:46;;;;;;;16.20;11.43;;;11.80;62.20;;;5.36;94.72;94990.97;5337262;26;20040;-49
2024/04/24 07:29:12;;;;;;;14.13;11.55;;;12.20;60.80;;;5.54;95.29;94989.84;5328222;26;20017;-51
2024/04/24 07:31:39;;;;;;;12.25;10.90;;;12.50;60.30;;;5.73;93.80;94990.31;5304451;26;20064;-57
2024/04/24 07:34:06;;;;;;;12.40;10.55;;;12.60;59.60;;;5.80;88.69;94988.28;5304807;26;20490;-54
2024/04/24 07:36:31;;;;;;;13.38;10.35;;;12.80;58.80;;;5.83;87.05;94984.31;5302430;26;20020;-54
2024/04/24 07:38:57;;;;;;;11.63;9.75;;;12.90;58.10;;;5.78;84.92;94982.44;5312483;26;20004;-53
2024/04/24 07:41:23;;;;;;;11.57;10.35;;;13.00;57.70;;;6.08;87.44;94989.09;5315381;26;20004;-51
2024/04/24 07:43:49;;;;;;;12.20;9.85;;;13.30;57.40;;;6.20;82.89;94989.72;5336203;26;20475;-54
2024/04/24 07:46:15;;;;;;;11.98;9.73;;;13.50;56.90;;;6.59;80.86;94986.91;5313425;26;20024;-51
2024/04/24 07:48:40;;;;;;;11.45;10.02;;;13.90;56.40;;;6.76;79.89;94986.75;5335441;26;20050;-50
2024/04/24 07:51:06;;;;;;;13.15;9.90;;;14.20;55.70;;;6.87;79.45;94983.13;5335493;26;20479;-50
2024/04/24 07:53:32;;;;;;;12.25;9.55;;;14.40;55.00;;;7.15;78.13;94987.25;5304642;26;20020;-51
2024/04/24 07:55:58;;;;;;;11.75;9.68;;;14.50;55.30;;;7.24;77.20;94976.94;5336448;26;20009;-55
2024/04/24 07:58:25;;;;;;;12.15;10.68;;;14.70;54.40;;;7.36;73.75;94981.00;5334820;26;20425;-53
2024/04/24 08:00:51;;;;;;;9.77;8.77;;;14.90;54.00;;;7.53;72.73;94983.44;5305407;26;20021;-53
2024/04/24 08:03:17;;;;;;;10.60;9.25;;;15.20;53.30;;;7.48;71.73;94979.97;5302696;26;20325;-53
2024/04/24 08:05:43;;;;;;;10.60;8.68;;;15.30;52.70;;;7.83;75.03;94985.41;5320268;26;20421;-53
2024/04/24 08:08:09;;;;;;;10.25;9.02;;;15.40;52.60;;;7.85;71.31;94991.22;5336808;26;20016;-56
2024/04/24 08:10:35;;;;;;;11.27;9.70;;;15.50;52.30;;;7.97;70.51;94987.56;5331854;26;20000;-55
2024/04/24 08:13:00;;;;;;;10.57;9.30;;;15.40;52.00;;;8.00;69.25;94982.50;5336310;26;20036;-54
2024/04/24 08:15:26;;;;;;;10.85;9.32;;;15.40;51.80;;;8.05;72.72;94979.06;5322373;26;20009;-55
2024/04/24 08:17:52;;;;;;;10.15;7.95;;;15.40;51.80;;;7.95;67.24;94977.19;5305762;26;20006;-53
2024/04/24 08:20:18;;;;;;;9.65;7.93;;;15.40;51.20;;;8.02;67.92;94983.06;5302440;26;20367;-55
2024/04/24 08:22:43;;;;;;;10.23;7.75;;;15.30;50.70;;;8.25;66.36;94979.09;5306789;26;20078;-55
2024/04/24 08:25:09;;;;;;;10.13;8.20;;;15.50;50.30;;;8.58;68.43;94980.44;5334356;26;20019;-52
2024/04/24 08:27:35;;;;;;;9.38;8.35;;;15.60;50.20;;;8.88;63.26;94968.22;5336429;26;20019;-54
2024/04/24 08:30:01;;;;;;;10.95;7.97;;;16.00;49.80;;;9.01;62.77;94967.66;5334319;26;20004;-49
2024/04/24 08:32:27;;;;;;;9.65;8.57;;;16.30;49.20;;;9.16;65.61;94963.38;5336447;26;20004;-50
2024/04/24 08:34:53;;;;;;;10.05;8.43;;;16.40;49.00;;;9.49;61.92;94956.59;5334330;26;20529;-51
2024/04/24 08:37:19;;;;;;;7.68;6.88;;;16.70;48.70;;;9.49;58.10;94951.28;5321385;26;20001;-50
2024/04/24 08:39:45;;;;;;;5.88;5.15;;;17.00;48.20;;;9.85;54.71;94948.47;5310091;26;20001;-51
2024/04/24 08:42:11;;;;;;;8.90;5.53;;;17.30;47.00;;;10.32;54.64;94947.91;5326358;26;20012;-49
2024/04/24 08:44:42;;;;;;;6.32;5.70;;;17.60;46.90;;;10.33;52.01;94943.38;5303491;26;20020;-51
2024/04/24 08:47:09;;;;;;;7.40;6.57;;;18.00;45.40;;;10.80;53.09;94947.25;5327477;26;20471;-53
2024/04/24 08:49:36;;;;;;;6.95;6.22;;;18.40;44.80;;;10.96;54.06;94940.69;5335898;26;20074;-53
2024/04/24 08:52:08;;;;;;;8.73;6.57;;;18.70;44.10;;;10.91;53.20;94937.31;5304763;26;20369;-51
2024/04/24 08:54:36;;;;;;;7.85;6.85;;;18.90;43.00;;;11.27;53.15;94937.69;5333102;26;20016;-54
2024/04/24 08:57:12;;;;;;;9.13;7.40;;;19.00;43.10;;;11.51;51.57;94929.69;5308111;26;20015;-51
2024/04/24 08:59:46;;;;;;;8.00;4.90;;;19.10;42.60;;;11.48;48.84;94933.72;5323986;26;20009;-53
2024/04/24 09:02:14;;;;;;;5.82;5.20;;;19.30;41.60;;;11.75;50.94;94927.78;5326709;26;20027;-55
2024/04/24 09:04:43;;;;;;;8.63;6.00;;;19.70;41.30;;;12.22;51.22;94917.25;5337387;26;20019;-50
2024/04/24 09:07:18;;;;;;;7.32;6.03;;;20.10;41.20;;;12.30;45.70;94913.94;5338724;26;20001;-52
2024/04/24 09:09:45;;;;;;;6.93;6.20;;;20.50;39.40;;;12.67;44.88;94915.72;5304687;26;20032;-50
2024/04/24 09:12:10;;;;;;;8.15;6.43;;;21.00;39.10;;;12.78;51.97;94927.03;5313843;26;20036;-55
2024/04/24 09:14:37;;;;;;;6.63;5.55;;;21.20;38.60;;;12.34;46.40;94920.28;5305108;26;20462;-54
2024/04/24 09:17:04;;;;;;;5.80;5.25;;;21.10;36.90;;;12.74;42.90;94907.34;5306893;26;20487;-50
2024/04/24 09:19:32;;;;;;;7.18;6.47;;;21.40;36.80;;;12.27;43.71;94912.63;5305092;26;20078;-51
2024/04/24 09:21:59;;;;;;;7.38;6.57;;;21.60;34.80;;;12.17;46.87;94912.00;5304283;26;20001;-51
2024/04/24 09:24:25;;;;;;;7.10;6.45;;;21.60;35.20;;;11.84;48.10;94906.56;5329980;26;20355;-52
2024/04/24 09:26:51;;;;;;;6.07;5.57;;;21.70;33.90;;;12.35;47.59;94907.72;5338841;26;20001;-51
2024/04/24 09:29:17;;;;;;;6.55;5.38;;;21.80;34.30;;;12.98;46.89;94903.72;5315958;26;20036;-51
2024/04/24 09:31:43;;;;;;;8.65;6.15;;;22.10;34.70;;;13.24;43.19;94904.81;5339020;26;20483;-53
2024/04/24 09:34:12;;;;;;;6.45;5.85;;;22.30;34.50;;;13.22;43.42;94906.97;5338938;26;20054;-52
2024/04/24 09:36:40;;;;;;;7.60;6.80;;;22.30;33.40;;;12.48;44.70;94899.75;5309257;26;20033;-51
2024/04/24 09:39:14;;;;;;;6.10;5.60;;;22.10;32.50;;;12.96;46.31;94895.97;5313934;26;20689;-50
2024/04/24 09:41:47;;;;;;;9.93;5.97;;;22.00;33.00;;;12.92;44.97;94897.66;5322653;26;20460;-51
2024/04/24 09:44:14;;;;;;;8.38;5.95;;;21.80;33.60;;;12.35;44.56;94903.19;5326956;26;20354;-49
2024/04/24 09:46:51;;;;;;;6.10;5.50;;;21.40;34.00;;;11.83;46.60;94886.31;5314166;26;20008;-48
2024/04/24 09:49:19;;;;;;;6.55;5.93;;;21.00;33.40;;;11.44;47.17;94890.03;5332234;26;20045;-49
2024/04/24 09:51:47;;;;;;;8.68;5.68;;;20.60;33.80;;;10.52;47.58;94887.59;5320096;26;20024;-52
2024/04/24 09:54:14;;;;;;;5.80;5.20;;;20.10;33.40;;;10.71;48.29;94883.13;5337137;26;20028;-52
2024/04/24 09:56:46;;;;;;;6.95;6.18;;;19.60;33.80;;;10.30;48.69;94875.50;5328840;26;20040;-51
2024/04/24 09:59:14;;;;;;;6.80;6.13;;;19.30;34.00;;;10.43;49.89;94876.72;5320756;26;21389;-51
2024/04/24 10:01:53;;;;;;;8.23;6.35;;;19.00;34.60;;;10.73;48.26;94878.31;5312883;26;20037;-52
2024/04/24 10:04:19;;;;;;;8.70;5.97;;;18.90;35.30;;;10.89;48.00;94879.75;5303760;26;20079;-52
2024/04/24 10:06:51;;;;;;;7.03;6.32;;;18.80;35.70;;;10.37;50.23;94877.84;5334999;26;20416;-51
2024/04/24 10:09:30;;;;;;;8.02;6.18;;;18.60;35.20;;;10.24;50.08;94873.94;5338279;26;20417;-49
2024/04/24 10:12:11;;;;;;;6.65;5.95;;;18.40;35.50;;;10.25;49.75;94875.56;5334999;26;20090;-55
2024/04/24 10:14:57;;;;;;;9.07;6.22;;;18.30;35.80;;;10.20;51.07;94868.38;5309746;26;20095;-51
2024/04/24 10:17:24;;;;;;;8.73;6.20;;;18.20;36.40;;;10.18;49.84;94865.22;5333048;26;20012;-51